Stations météo

Publicité
Salsburgh, Grande-Bretagne (99024): Température de l'air & dewpoint: 14.06.2018 08:00:00 - 20.06.2018 08:00:00 (BST)Salsburgh, Grande-Bretagne (99024): Vitesse du vent & gusts: 14.06.2018 08:00:00 - 20.06.2018 08:00:00 (BST)Salsburgh, Grande-Bretagne (99024): Direction du vent: 14.06.2018 08:00:00 - 20.06.2018 08:00:00 (BST)Salsburgh, Grande-Bretagne (99024): Quantités de précipitations: 14.06.2018 08:00:00 - 20.06.2018 08:00:00 (BST)
Date & Time tt [°C] td [°C] ff [km/h] ff [knt] fx [km/h] fx [knt] dd rr [mm]
20.06.2018 08:00:00 - - - - - - - -
20.06.2018 07:00:00 8,7 8,7 15 8 - - N 1,4
20.06.2018 06:00:00 11,5 11,5 11 6 - - SSW 0,2
20.06.2018 05:00:00 10,0 10,0 8 4 - - SE 0,4
20.06.2018 04:00:00 8,7 8,7 16 9 - - E 2,4
20.06.2018 03:00:00 8,7 8,7 13 7 - - NE 6,6
20.06.2018 02:00:00 8,6 8,6 26 14 - - E 2,2
20.06.2018 01:00:00 8,4 8,4 21 11 - - ENE 7,6
20.06.2018 00:00:00 8,8 8,7 16 9 - - ENE 5,4
19.06.2018 23:00:00 8,7 8,6 13 7 - - E 2,0
19.06.2018 22:00:00 8,8 8,5 13 7 - - ENE 2,2
19.06.2018 21:00:00 9,1 8,6 13 7 - - SE 0,2
19.06.2018 20:00:00 10,7 7,6 11 6 - - S 0,2
19.06.2018 19:00:00 11,1 7,5 11 6 - - SSW 0,0
19.06.2018 18:00:00 11,9 5,3 11 6 - - WSW 0,0
19.06.2018 17:00:00 12,6 5,3 15 8 - - W 0,0
19.06.2018 16:00:00 13,5 5,4 21 11 - - WSW 0,0
19.06.2018 15:00:00 12,5 5,8 24 13 - - WSW 0,0
19.06.2018 14:00:00 12,5 8,1 24 13 - - W 0,0
19.06.2018 13:00:00 11,6 6,3 31 17 - - WSW 0,0
19.06.2018 12:00:00 11,9 7,5 28 15 - - SW 0,0
19.06.2018 11:00:00 11,3 7,2 28 15 - - WSW 0,0
19.06.2018 10:00:00 10,2 6,2 26 14 48 26 W 0,0
19.06.2018 09:00:00 10,4 6,3 35 19 48 26 WSW 0,0
19.06.2018 08:00:00 9,4 6,6 24 13 48 26 W 0,0
19.06.2018 07:00:00 8,7 6,5 34 18 46 25 WSW 0,0
19.06.2018 06:00:00 7,9 6,1 34 18 - - WSW 0,0
19.06.2018 05:00:00 7,4 5,1 31 17 - - W 0,0
19.06.2018 04:00:00 7,4 4,8 31 17 50 27 WSW 0,0
19.06.2018 03:00:00 7,6 5,1 34 18 46 25 W 0,0
19.06.2018 02:00:00 7,6 5,8 29 16 48 26 WSW 0,0
19.06.2018 01:00:00 8,0 5,7 31 17 48 26 W -
19.06.2018 00:00:00 8,3 6,1 28 15 50 27 WSW 0,0
18.06.2018 23:00:00 8,7 6,3 31 17 46 25 W 0,0
18.06.2018 22:00:00 9,3 5,3 29 16 65 35 W 0,0
18.06.2018 21:00:00 10,6 6,5 44 24 61 33 W 0,0
18.06.2018 20:00:00 10,9 7,7 29 16 50 27 WSW 0,0
18.06.2018 19:00:00 10,3 8,3 31 17 52 28 WSW 0,0
18.06.2018 18:00:00 10,9 9,2 29 16 54 29 W 0,0
18.06.2018 17:00:00 12,3 8,4 41 22 57 31 WSW 0,0
18.06.2018 16:00:00 13,4 8,0 42 23 57 31 SW 0,0
18.06.2018 15:00:00 15,0 9,2 41 22 61 33 WSW 0,0
18.06.2018 14:00:00 13,4 8,0 41 22 59 32 SW 0,0
18.06.2018 13:00:00 13,6 8,1 41 22 55 30 SW 0,0
18.06.2018 12:00:00 12,4 8,2 39 21 55 30 SW 0,0
18.06.2018 11:00:00 11,7 9,0 39 21 54 29 SW 0,0
18.06.2018 10:00:00 10,9 9,0 31 17 46 25 SW 0,0
18.06.2018 09:00:00 9,9 8,7 35 19 46 25 WSW 0,0
18.06.2018 08:00:00 9,4 8,8 28 15 - - WSW 0,2
18.06.2018 07:00:00 9,1 8,2 37 20 54 29 WSW 0,0
18.06.2018 06:00:00 9,0 8,0 22 12 - - SW 0,0
18.06.2018 05:00:00 9,0 8,3 22 12 - - WSW 0,0
18.06.2018 04:00:00 9,3 8,3 24 13 - - W 0,0
18.06.2018 03:00:00 9,4 8,8 24 13 - - W 0,0
18.06.2018 02:00:00 9,7 9,3 26 14 - - WSW 0,0
18.06.2018 01:00:00 10,2 10,2 37 20 52 28 W 1,0
18.06.2018 00:00:00 11,3 11,3 24 13 - - WSW 0,4
17.06.2018 23:00:00 11,3 11,1 26 14 50 27 WSW 0,2
17.06.2018 22:00:00 11,8 11,8 29 16 - - W 2,0
17.06.2018 21:00:00 12,6 12,5 21 11 - - SW 0,8
17.06.2018 20:00:00 12,6 12,3 21 11 - - SSW 0,0
17.06.2018 19:00:00 11,9 11,6 18 10 - - S 0,2
17.06.2018 18:00:00 11,8 11,2 22 12 - - S 0,4
17.06.2018 17:00:00 12,1 10,0 22 12 - - SSW 0,0
17.06.2018 16:00:00 12,9 8,9 28 15 - - SSW 0,0
17.06.2018 15:00:00 13,9 8,9 28 15 - - SSW 0,0
17.06.2018 14:00:00 13,9 9,9 22 12 - - SW 0,0
17.06.2018 13:00:00 13,0 8,7 16 9 - - SW 0,0
17.06.2018 12:00:00 12,9 8,9 24 13 - - SSW 0,0
17.06.2018 11:00:00 11,9 9,8 22 12 - - SW 0,0
17.06.2018 10:00:00 10,7 9,7 21 11 - - SW 0,0
17.06.2018 09:00:00 10,4 9,9 18 10 - - SW 0,0
17.06.2018 08:00:00 9,1 8,9 18 10 - - SSW 0,0
17.06.2018 07:00:00 8,2 8,1 16 9 - - S 0,0
17.06.2018 06:00:00 7,4 7,4 11 6 - - SSW 0,0
17.06.2018 05:00:00 5,5 5,5 9 5 - - S 0,0
17.06.2018 04:00:00 5,2 5,1 13 7 - - SSW 0,0
17.06.2018 03:00:00 5,6 5,4 13 7 - - SW 0,0
17.06.2018 02:00:00 5,6 5,3 11 6 - - SW 0,0
17.06.2018 01:00:00 6,6 6,1 16 9 - - WSW 0,0
17.06.2018 00:00:00 7,4 6,4 16 9 - - W 0,0
16.06.2018 23:00:00 8,2 6,6 22 12 - - W 0,0
16.06.2018 22:00:00 9,0 6,9 24 13 - - W 0,0
16.06.2018 21:00:00 10,6 7,3 26 14 - - WSW 0,0
16.06.2018 20:00:00 10,8 7,5 26 14 - - W 0,0
16.06.2018 19:00:00 11,3 7,4 26 14 - - W 0,0
16.06.2018 18:00:00 10,5 7,0 24 13 - - SW 0,0
16.06.2018 17:00:00 10,7 9,6 21 11 - - WSW 0,2
16.06.2018 16:00:00 10,9 8,5 22 12 - - W 0,0
16.06.2018 15:00:00 12,2 9,1 34 18 - - W 0,0
16.06.2018 14:00:00 10,9 10,7 18 10 50 27 SSW 3,8
16.06.2018 13:00:00 11,6 11,0 29 16 - - S 0,2
16.06.2018 12:00:00 10,9 10,4 26 14 - - SSE 0,8
16.06.2018 11:00:00 10,6 10,3 24 13 - - SSE 0,6
16.06.2018 10:00:00 9,8 9,2 28 15 - - SSE 1,6
16.06.2018 09:00:00 10,1 9,4 24 13 - - S 0,8
16.06.2018 08:00:00 10,4 8,9 28 15 - - SSE 0,0
16.06.2018 07:00:00 10,2 8,7 24 13 - - SSE 0,0
16.06.2018 06:00:00 9,9 8,7 22 12 - - S 0,0
16.06.2018 05:00:00 9,3 8,2 26 14 - - SSE 0,0
16.06.2018 04:00:00 8,9 7,9 22 12 - - SSE 0,0
16.06.2018 03:00:00 7,9 7,1 18 10 - - SSE 0,0
16.06.2018 02:00:00 8,9 7,1 18 10 - - S 0,0
16.06.2018 01:00:00 9,5 7,7 21 11 - - S 0,0
16.06.2018 00:00:00 9,3 7,8 21 11 - - S 0,0
15.06.2018 23:00:00 9,3 8,1 15 8 - - S 0,0
15.06.2018 22:00:00 9,2 7,6 11 6 - - S 0,0
15.06.2018 21:00:00 9,4 7,7 15 8 - - SSW 0,0
15.06.2018 20:00:00 10,0 7,6 18 10 - - SSW 0,0
15.06.2018 19:00:00 10,6 7,5 21 11 - - WSW 0,0
15.06.2018 18:00:00 11,2 8,0 22 12 - - W 0,0
15.06.2018 17:00:00 11,9 8,3 26 14 46 25 WSW 0,0
15.06.2018 16:00:00 12,4 7,6 29 16 46 25 WSW 0,0
15.06.2018 15:00:00 12,7 8,1 29 16 - - WSW 0,0
15.06.2018 14:00:00 11,7 7,6 28 15 - - WSW 0,0
15.06.2018 13:00:00 10,8 7,5 28 15 - - WSW 0,0
15.06.2018 12:00:00 11,7 8,5 29 16 - - SW 0,0
15.06.2018 11:00:00 10,4 7,3 26 14 - - WSW 0,0
15.06.2018 10:00:00 9,7 7,1 28 15 - - SW 0,0
15.06.2018 09:00:00 9,3 7,0 28 15 - - WSW 0,0
15.06.2018 08:00:00 9,2 7,2 24 13 - - WSW 0,0
15.06.2018 07:00:00 8,4 7,1 26 14 - - SW 0,0
15.06.2018 06:00:00 8,0 6,8 24 13 - - SW 0,0
15.06.2018 05:00:00 8,3 7,1 28 15 48 26 WSW 0,0
15.06.2018 04:00:00 7,9 6,8 31 17 48 26 WSW 0,0
15.06.2018 03:00:00 8,7 7,4 31 17 46 25 WSW 0,0
15.06.2018 02:00:00 8,4 7,5 34 18 50 27 WSW 0,0
15.06.2018 01:00:00 8,1 7,5 26 14 - - SSW 0,0
15.06.2018 00:00:00 7,9 7,1 26 14 - - SSW 0,0
14.06.2018 23:00:00 7,9 6,5 24 13 - - SW 0,0
14.06.2018 22:00:00 8,2 6,0 28 15 48 26 SW 0,0
14.06.2018 21:00:00 9,1 6,3 34 18 67 36 WSW 0,0
14.06.2018 20:00:00 9,6 7,1 37 20 54 29 W 0,0
14.06.2018 19:00:00 9,1 7,9 37 20 68 37 WSW 0,6
14.06.2018 18:00:00 12,1 6,7 46 25 74 40 W 0,0
14.06.2018 17:00:00 13,3 8,8 50 27 76 41 W 0,0
14.06.2018 16:00:00 11,8 7,1 52 28 81 44 W 0,0
14.06.2018 15:00:00 11,5 5,4 59 32 85 46 W 0,0
14.06.2018 14:00:00 11,5 7,1 52 28 91 49 W 0,0
14.06.2018 13:00:00 11,6 5,8 68 37 91 49 W 0,0
14.06.2018 12:00:00 10,7 8,6 61 33 93 50 W 0,0
14.06.2018 11:00:00 10,7 9,4 67 36 91 49 W 0,0
14.06.2018 10:00:00 10,5 9,4 57 31 94 51 W 0,0
14.06.2018 09:00:00 12,3 10,6 54 29 76 41 SW 0,0
14.06.2018 08:00:00 12,2 9,8 50 27 87 47 SSW 0,0

tt = Température de l'air
td = dewpoint
ff = Vitesse du vent
fx = gusts
dd = Direction du vent
rr = Quantités de précipitations

stations d'obs. à proximité